createdAt,value
2018-02-24T00:02:25.975Z,-2.70
2018-02-24T00:04:52.856Z,-2.70
2018-02-24T00:07:20.488Z,-2.60
2018-02-24T00:09:47.438Z,-2.60
2018-02-24T00:12:14.875Z,-2.70
2018-02-24T00:14:41.835Z,-2.60
2018-02-24T00:17:08.707Z,-2.50
2018-02-24T00:19:35.846Z,-2.50
2018-02-24T00:22:03.419Z,-2.70
2018-02-24T00:24:33.576Z,-2.60
2018-02-24T00:27:01.408Z,-2.80
2018-02-24T00:29:28.284Z,-2.80
2018-02-24T00:31:55.210Z,-2.60
2018-02-24T00:34:23.115Z,-2.50
2018-02-24T00:36:50.039Z,-2.50
2018-02-24T00:39:16.925Z,-2.60
2018-02-24T00:41:43.846Z,-2.50
2018-02-24T00:44:10.715Z,-2.80
2018-02-24T00:46:37.711Z,-3.00
2018-02-24T00:49:05.449Z,-3.10
2018-02-24T00:51:32.404Z,-3.10
2018-02-24T00:53:59.380Z,-3.20
2018-02-24T00:56:26.332Z,-3.30
2018-02-24T00:58:53.315Z,-3.40
2018-02-24T01:01:20.331Z,-3.50
2018-02-24T01:03:47.745Z,-3.50
2018-02-24T01:06:15.439Z,-3.40
2018-02-24T01:08:42.363Z,-3.40
2018-02-24T01:11:10.076Z,-3.30
2018-02-24T01:13:37.005Z,-3.40
2018-02-24T01:16:03.908Z,-3.30
2018-02-24T01:18:31.567Z,-3.20
2018-02-24T01:20:58.513Z,-3.30
2018-02-24T01:23:25.442Z,-3.40
2018-02-24T01:25:52.375Z,-3.50
2018-02-24T01:28:19.250Z,-3.60
2018-02-24T01:30:46.174Z,-3.50
2018-02-24T01:33:13.098Z,-3.60
2018-02-24T01:35:40.087Z,-3.60
2018-02-24T01:38:07.073Z,-3.60
2018-02-24T01:40:33.999Z,-3.50
2018-02-24T01:43:01.696Z,-3.50
2018-02-24T01:45:28.571Z,-3.60
2018-02-24T01:47:55.512Z,-3.60
2018-02-24T01:50:22.560Z,-3.70
2018-02-24T01:52:49.483Z,-3.70
2018-02-24T01:55:16.359Z,-3.70
2018-02-24T01:57:43.287Z,-3.70
2018-02-24T02:00:10.174Z,-3.70
2018-02-24T02:02:37.871Z,-3.60
2018-02-24T02:05:04.760Z,-3.70
2018-02-24T02:07:31.678Z,-3.80
2018-02-24T02:09:58.553Z,-3.70
2018-02-24T02:12:25.484Z,-3.60
2018-02-24T02:14:52.348Z,-3.60
2018-02-24T02:17:19.300Z,-3.60
2018-02-24T02:19:46.176Z,-3.70
2018-02-24T02:22:13.122Z,-3.80
2018-02-24T02:24:40.805Z,-3.70
2018-02-24T02:27:07.684Z,-3.80
2018-02-24T02:29:34.647Z,-3.80
2018-02-24T02:32:01.531Z,-3.80
2018-02-24T02:34:28.464Z,-3.90
2018-02-24T02:36:56.069Z,-4.10
2018-02-24T02:39:23.005Z,-4.10
2018-02-24T02:41:49.884Z,-4.20
2018-02-24T02:44:16.806Z,-4.10
2018-02-24T02:46:43.749Z,-4.20
2018-02-24T02:49:10.675Z,-4.20
2018-02-24T02:51:37.547Z,-4.10
2018-02-24T02:54:04.474Z,-4.20
2018-02-24T02:56:31.458Z,-4.30
2018-02-24T02:58:58.328Z,-4.40
2018-02-24T03:01:25.276Z,-4.30
2018-02-24T03:03:52.883Z,-4.40
2018-02-24T03:06:19.869Z,-4.40
2018-02-24T03:08:46.872Z,-4.30
2018-02-24T03:11:13.807Z,-4.40
2018-02-24T03:13:40.696Z,-4.40
2018-02-24T03:16:07.703Z,-4.40
2018-02-24T03:18:34.619Z,-4.40
2018-02-24T03:21:02.355Z,-4.40
2018-02-24T03:23:29.277Z,-4.40
2018-02-24T03:25:56.145Z,-4.30
2018-02-24T03:28:23.077Z,-4.30
2018-02-24T03:30:50.003Z,-4.30
2018-02-24T03:33:16.871Z,-4.30
2018-02-24T03:35:43.803Z,-4.30
2018-02-24T03:38:10.667Z,-4.30
2018-02-24T03:40:37.620Z,-4.30
2018-02-24T03:43:04.615Z,-4.20
2018-02-24T03:45:31.564Z,-4.30
2018-02-24T03:47:58.546Z,-4.50
2018-02-24T03:50:25.479Z,-4.50
2018-02-24T03:52:52.466Z,-4.60
2018-02-24T03:55:19.461Z,-4.60
2018-02-24T03:57:46.489Z,-4.50
2018-02-24T04:00:13.396Z,-4.60
2018-02-24T04:02:40.329Z,-4.40
2018-02-24T04:05:07.298Z,-4.50
2018-02-24T04:07:34.305Z,-4.50
2018-02-24T04:10:01.168Z,-4.50
2018-02-24T04:12:28.052Z,-4.30
2018-02-24T04:14:55.706Z,-4.40
2018-02-24T04:17:22.575Z,-4.40
2018-02-24T04:19:49.521Z,-4.50
2018-02-24T04:22:17.123Z,-4.40
2018-02-24T04:24:44.029Z,-4.40
2018-02-24T04:27:11.008Z,-4.40
2018-02-24T04:29:37.876Z,-4.50
2018-02-24T04:32:04.809Z,-4.50
2018-02-24T04:34:31.679Z,-4.40
2018-02-24T04:36:58.626Z,-4.30
2018-02-24T04:39:25.494Z,-4.20
2018-02-24T04:41:52.496Z,-4.30
2018-02-24T04:44:19.376Z,-4.30
2018-02-24T04:46:46.290Z,-4.40
2018-02-24T04:49:13.218Z,-4.70
2018-02-24T04:51:40.105Z,-4.80
2018-02-24T04:54:07.043Z,-4.90
2018-02-24T04:56:33.969Z,-4.80
2018-02-24T04:59:00.840Z,-5.00
2018-02-24T05:01:27.796Z,-4.90
2018-02-24T05:03:54.667Z,-5.00
2018-02-24T05:06:21.532Z,-5.10
2018-02-24T05:08:48.512Z,-5.00
2018-02-24T05:11:15.448Z,-5.10
2018-02-24T05:13:42.323Z,-5.10
2018-02-24T05:16:09.310Z,-5.20
2018-02-24T05:18:36.249Z,-5.10
2018-02-24T05:21:03.140Z,-5.10
2018-02-24T05:23:30.143Z,-5.10
2018-02-24T05:25:58.601Z,-5.10
2018-02-24T05:28:40.440Z,-5.00
2018-02-24T05:31:08.293Z,-5.00
2018-02-24T05:33:35.167Z,-5.10
2018-02-24T05:36:02.124Z,-5.00
2018-02-24T05:38:29.042Z,-5.00
2018-02-24T05:40:55.983Z,-5.10
2018-02-24T05:43:22.912Z,-5.10
2018-02-24T05:45:49.850Z,-5.10
2018-02-24T05:48:16.785Z,-5.10
2018-02-24T05:50:44.467Z,-5.20
2018-02-24T05:53:11.340Z,-5.20
2018-02-24T05:55:38.273Z,-5.00
2018-02-24T05:58:05.209Z,-4.90
2018-02-24T06:00:32.213Z,-4.90
2018-02-24T06:02:59.840Z,-4.90
2018-02-24T06:05:26.778Z,-4.90
2018-02-24T06:07:53.750Z,-4.80
2018-02-24T06:10:20.630Z,-4.90
2018-02-24T06:12:48.305Z,-4.80
2018-02-24T06:15:15.228Z,-4.80
2018-02-24T06:17:42.919Z,-4.80
2018-02-24T06:20:09.836Z,-4.80
2018-02-24T06:22:36.762Z,-5.00
2018-02-24T06:25:03.736Z,-5.00
2018-02-24T06:27:31.490Z,-4.90
2018-02-24T06:29:58.373Z,-4.90
2018-02-24T06:32:25.381Z,-5.10
2018-02-24T06:34:52.306Z,-5.20
2018-02-24T06:37:19.264Z,-5.20
2018-02-24T06:39:46.198Z,-4.90
2018-02-24T06:42:13.091Z,-4.70
2018-02-24T06:44:40.015Z,-4.80
2018-02-24T06:47:06.867Z,-4.80
2018-02-24T06:49:34.547Z,-4.80
2018-02-24T06:52:01.405Z,-4.80
2018-02-24T06:54:28.273Z,-4.70
2018-02-24T06:56:55.272Z,-4.90
2018-02-24T06:59:22.884Z,-4.80
2018-02-24T07:01:50.602Z,-4.80
2018-02-24T07:04:18.856Z,-4.80
2018-02-24T07:06:46.772Z,-4.80
2018-02-24T07:09:14.406Z,-4.70
2018-02-24T07:14:27.703Z,-4.80
2018-02-24T07:16:54.960Z,-4.60
2018-02-24T07:19:23.948Z,-4.50
2018-02-24T07:22:02.275Z,-4.40
2018-02-24T07:24:33.382Z,-4.30
2018-02-24T07:27:00.492Z,-4.00
2018-02-24T07:29:32.765Z,-3.80
2018-02-24T07:32:02.506Z,-3.20
2018-02-24T07:34:34.029Z,-2.50
2018-02-24T07:37:09.466Z,-2.30
2018-02-24T07:39:43.319Z,-2.30
2018-02-24T07:42:10.993Z,-2.20
2018-02-24T07:44:46.298Z,-2.00
2018-02-24T07:47:13.880Z,-1.20
2018-02-24T07:49:41.022Z,-0.10
2018-02-24T07:52:14.459Z,0.20
2018-02-24T07:54:41.959Z,0.70
2018-02-24T07:57:09.653Z,3.40
2018-02-24T07:59:37.716Z,3.30
2018-02-24T08:02:05.420Z,3.70
2018-02-24T08:04:33.495Z,3.90
2018-02-24T08:07:04.115Z,3.90
2018-02-24T08:09:35.315Z,3.90
2018-02-24T08:12:15.837Z,5.40
2018-02-24T08:14:56.747Z,6.40
2018-02-24T08:17:36.312Z,8.20
2018-02-24T08:20:18.146Z,6.90
2018-02-24T08:22:58.382Z,7.20
2018-02-24T08:25:26.805Z,7.20
2018-02-24T08:27:55.183Z,7.80
2018-02-24T08:30:22.731Z,8.90
2018-02-24T08:32:53.299Z,7.40
2018-02-24T08:35:20.305Z,8.40
2018-02-24T08:37:47.236Z,8.30
2018-02-24T08:40:14.197Z,9.00
2018-02-24T08:42:42.607Z,8.60
2018-02-24T08:45:09.467Z,9.60
2018-02-24T08:47:36.404Z,10.50
2018-02-24T08:50:11.540Z,9.00
2018-02-24T08:52:39.804Z,8.80
2018-02-24T08:55:06.978Z,8.30
2018-02-24T08:57:40.707Z,7.90
2018-02-24T09:00:08.968Z,7.10
2018-02-24T09:02:36.577Z,8.90
2018-02-24T09:05:03.479Z,8.90
2018-02-24T09:07:30.432Z,10.20
